sensor_id;sensor_type;location;lat;lon;timestamp;pressure;altitude;pressure_sealevel;temperature;humidity
7824;BME280;3957;48.61947800;9.05303100;2024-03-07T00:00:19;96490.03;;;3.50;100.00
7824;BME280;3957;48.61947800;9.05303100;2024-03-07T00:01:23;96488.22;;;3.50;100.00
7824;BME280;3957;48.61947800;9.05303100;2024-03-07T00:02:25;96488.06;;;3.52;100.00
7824;BME280;3957;48.61947800;9.05303100;2024-03-07T00:03:26;96491.00;;;3.49;100.00
7824;BME280;3957;48.61947800;9.05303100;2024-03-07T00:04:28;96490.19;;;3.48;100.00
7824;BME280;3957;48.61947800;9.05303100;2024-03-07T00:05:29;96482.91;;;3.50;100.00
7824;BME280;3957;48.61947800;9.05303100;2024-03-07T00:06:31;96479.88;;;3.45;100.00
7824;BME280;3957;48.61947800;9.05303100;2024-03-07T00:07:32;96483.38;;;3.46;100.00
7824;BME280;3957;48.61947800;9.05303100;2024-03-07T00:08:34;96478.75;;;3.48;100.00
7824;BME280;3957;48.61947800;9.05303100;2024-03-07T00:09:36;96482.09;;;3.50;100.00
7824;BME280;3957;48.61947800;9.05303100;2024-03-07T00:10:38;96489.78;;;3.43;100.00
7824;BME280;3957;48.61947800;9.05303100;2024-03-07T00:11:40;96488.50;;;3.47;100.00
7824;BME280;3957;48.61947800;9.05303100;2024-03-07T00:12:42;96485.16;;;3.45;100.00
7824;BME280;3957;48.61947800;9.05303100;2024-03-07T00:13:44;96481.69;;;3.45;100.00
7824;BME280;3957;48.61947800;9.05303100;2024-03-07T00:14:46;96482.25;;;3.48;100.00
7824;BME280;3957;48.61947800;9.05303100;2024-03-07T00:15:47;96484.34;;;3.45;100.00
7824;BME280;3957;48.61947800;9.05303100;2024-03-07T00:16:49;96480.41;;;3.49;100.00
7824;BME280;3957;48.61947800;9.05303100;2024-03-07T00:17:50;96486.19;;;3.44;100.00
7824;BME280;3957;48.61947800;9.05303100;2024-03-07T00:18:52;96488.34;;;3.49;100.00
7824;BME280;3957;48.61947800;9.05303100;2024-03-07T00:19:54;96480.19;;;3.42;100.00
7824;BME280;3957;48.61947800;9.05303100;2024-03-07T00:20:55;96491.22;;;3.37;100.00
7824;BME280;3957;48.61947800;9.05303100;2024-03-07T00:21:57;96484.97;;;3.38;100.00
7824;BME280;3957;48.61947800;9.05303100;2024-03-07T00:22:58;96483.13;;;3.39;100.00
7824;BME280;3957;48.61947800;9.05303100;2024-03-07T00:24:00;96479.13;;;3.35;100.00
7824;BME280;3957;48.61947800;9.05303100;2024-03-07T00:25:02;96483.28;;;3.37;100.00
7824;BME280;3957;48.61947800;9.05303100;2024-03-07T00:26:06;96492.75;;;3.40;100.00
7824;BME280;3957;48.61947800;9.05303100;2024-03-07T00:27:09;96487.44;;;3.40;100.00
7824;BME280;3957;48.61947800;9.05303100;2024-03-07T00:28:10;96494.53;;;3.39;100.00
7824;BME280;3957;48.61947800;9.05303100;2024-03-07T00:29:12;96493.16;;;3.35;100.00
7824;BME280;3957;48.61947800;9.05303100;2024-03-07T00:30:13;96489.31;;;3.30;100.00
7824;BME280;3957;48.61947800;9.05303100;2024-03-07T00:31:15;96486.66;;;3.30;100.00
7824;BME280;3957;48.61947800;9.05303100;2024-03-07T00:32:17;96487.38;;;3.32;100.00
7824;BME280;3957;48.61947800;9.05303100;2024-03-07T00:33:20;96487.50;;;3.30;100.00
7824;BME280;3957;48.61947800;9.05303100;2024-03-07T00:34:23;96486.66;;;3.30;100.00
7824;BME280;3957;48.61947800;9.05303100;2024-03-07T00:35:26;96491.28;;;3.28;100.00
7824;BME280;3957;48.61947800;9.05303100;2024-03-07T00:36:29;96485.03;;;3.29;100.00
7824;BME280;3957;48.61947800;9.05303100;2024-03-07T00:37:30;96488.41;;;3.21;100.00
7824;BME280;3957;48.61947800;9.05303100;2024-03-07T00:38:32;96491.84;;;3.21;100.00
7824;BME280;3957;48.61947800;9.05303100;2024-03-07T00:39:33;96483.94;;;3.21;100.00
7824;BME280;3957;48.61947800;9.05303100;2024-03-07T00:40:35;96484.94;;;3.20;100.00
7824;BME280;3957;48.61947800;9.05303100;2024-03-07T00:41:40;96485.19;;;3.17;100.00
7824;BME280;3957;48.61947800;9.05303100;2024-03-07T00:42:42;96486.31;;;3.15;100.00
7824;BME280;3957;48.61947800;9.05303100;2024-03-07T00:43:44;96484.53;;;3.15;100.00
7824;BME280;3957;48.61947800;9.05303100;2024-03-07T00:44:45;96485.50;;;3.14;100.00
7824;BME280;3957;48.61947800;9.05303100;2024-03-07T00:45:48;96482.47;;;3.09;100.00
7824;BME280;3957;48.61947800;9.05303100;2024-03-07T00:46:51;96478.69;;;3.12;100.00
7824;BME280;3957;48.61947800;9.05303100;2024-03-07T00:47:53;96478.19;;;3.08;100.00
7824;BME280;3957;48.61947800;9.05303100;2024-03-07T00:48:55;96485.09;;;3.09;100.00
7824;BME280;3957;48.61947800;9.05303100;2024-03-07T00:49:56;96477.16;;;3.09;100.00
7824;BME280;3957;48.61947800;9.05303100;2024-03-07T00:50:58;96476.81;;;3.04;100.00
7824;BME280;3957;48.61947800;9.05303100;2024-03-07T00:52:00;96478.75;;;3.02;100.00
7824;BME280;3957;48.61947800;9.05303100;2024-03-07T00:53:01;96479.44;;;3.04;100.00
7824;BME280;3957;48.61947800;9.05303100;2024-03-07T00:54:03;96480.94;;;3.06;100.00
7824;BME280;3957;48.61947800;9.05303100;2024-03-07T00:55:06;96477.22;;;2.99;100.00
7824;BME280;3957;48.61947800;9.05303100;2024-03-07T00:56:10;96481.69;;;2.99;100.00
7824;BME280;3957;48.61947800;9.05303100;2024-03-07T00:57:11;96473.75;;;2.99;100.00
7824;BME280;3957;48.61947800;9.05303100;2024-03-07T00:58:13;96474.56;;;2.99;100.00
7824;BME280;3957;48.61947800;9.05303100;2024-03-07T00:59:17;96484.78;;;2.94;100.00
7824;BME280;3957;48.61947800;9.05303100;2024-03-07T01:00:19;96477.41;;;2.88;100.00
7824;BME280;3957;48.61947800;9.05303100;2024-03-07T01:01:23;96477.41;;;2.88;100.00
7824;BME280;3957;48.61947800;9.05303100;2024-03-07T01:02:24;96475.59;;;2.88;100.00
7824;BME280;3957;48.61947800;9.05303100;2024-03-07T01:03:27;96474.09;;;2.86;100.00
7824;BME280;3957;48.61947800;9.05303100;2024-03-07T01:04:28;96471.22;;;2.79;100.00
7824;BME280;3957;48.61947800;9.05303100;2024-03-07T01:05:32;96474.81;;;2.78;100.00
7824;BME280;3957;48.61947800;9.05303100;2024-03-07T01:06:34;96471.63;;;2.75;100.00
7824;BME280;3957;48.61947800;9.05303100;2024-03-07T01:07:37;96475.13;;;2.75;100.00
7824;BME280;3957;48.61947800;9.05303100;2024-03-07T01:08:39;96483.56;;;2.79;100.00
7824;BME280;3957;48.61947800;9.05303100;2024-03-07T01:09:40;96482.06;;;2.76;100.00
7824;BME280;3957;48.61947800;9.05303100;2024-03-07T01:10:42;96473.31;;;2.76;100.00
7824;BME280;3957;48.61947800;9.05303100;2024-03-07T01:11:44;96475.50;;;2.80;100.00
7824;BME280;3957;48.61947800;9.05303100;2024-03-07T01:12:49;96472.84;;;2.80;100.00
7824;BME280;3957;48.61947800;9.05303100;2024-03-07T01:13:51;96478.28;;;2.79;100.00
7824;BME280;3957;48.61947800;9.05303100;2024-03-07T01:14:53;96472.72;;;2.82;100.00
7824;BME280;3957;48.61947800;9.05303100;2024-03-07T01:15:54;96471.38;;;2.78;100.00
7824;BME280;3957;48.61947800;9.05303100;2024-03-07T01:16:56;96477.63;;;2.77;100.00
7824;BME280;3957;48.61947800;9.05303100;2024-03-07T01:17:58;96474.81;;;2.78;100.00
7824;BME280;3957;48.61947800;9.05303100;2024-03-07T01:19:00;96475.94;;;2.76;100.00
7824;BME280;3957;48.61947800;9.05303100;2024-03-07T01:20:01;96473.25;;;2.85;100.00
7824;BME280;3957;48.61947800;9.05303100;2024-03-07T01:21:04;96466.91;;;2.78;100.00
7824;BME280;3957;48.61947800;9.05303100;2024-03-07T01:22:06;96474.97;;;2.77;100.00
7824;BME280;3957;48.61947800;9.05303100;2024-03-07T01:23:09;96470.66;;;2.76;100.00
7824;BME280;3957;48.61947800;9.05303100;2024-03-07T01:24:12;96466.75;;;2.80;100.00
7824;BME280;3957;48.61947800;9.05303100;2024-03-07T01:25:13;96462.28;;;2.80;100.00
7824;BME280;3957;48.61947800;9.05303100;2024-03-07T01:26:15;96466.34;;;2.75;100.00
7824;BME280;3957;48.61947800;9.05303100;2024-03-07T01:27:16;96461.22;;;2.73;100.00
7824;BME280;3957;48.61947800;9.05303100;2024-03-07T01:28:18;96467.47;;;2.72;100.00
7824;BME280;3957;48.61947800;9.05303100;2024-03-07T01:29:19;96458.72;;;2.71;100.00
7824;BME280;3957;48.61947800;9.05303100;2024-03-07T01:30:22;96466.63;;;2.71;100.00
7824;BME280;3957;48.61947800;9.05303100;2024-03-07T01:31:24;96462.47;;;2.69;100.00
7824;BME280;3957;48.61947800;9.05303100;2024-03-07T01:32:26;96462.47;;;2.69;100.00
7824;BME280;3957;48.61947800;9.05303100;2024-03-07T01:33:28;96460.13;;;2.66;100.00
7824;BME280;3957;48.61947800;9.05303100;2024-03-07T01:34:29;96460.56;;;2.61;100.00
7824;BME280;3957;48.61947800;9.05303100;2024-03-07T01:35:31;96457.38;;;2.58;100.00
7824;BME280;3957;48.61947800;9.05303100;2024-03-07T01:36:33;96458.50;;;2.55;100.00
7824;BME280;3957;48.61947800;9.05303100;2024-03-07T01:37:35;96459.47;;;2.54;100.00
7824;BME280;3957;48.61947800;9.05303100;2024-03-07T01:38:36;96459.91;;;2.49;100.00
7824;BME280;3957;48.61947800;9.05303100;2024-03-07T01:39:38;96449.31;;;2.59;100.00
7824;BME280;3957;48.61947800;9.05303100;2024-03-07T01:40:40;96449.19;;;2.51;100.00
7824;BME280;3957;48.61947800;9.05303100;2024-03-07T01:41:42;96454.91;;;2.46;100.00
7824;BME280;3957;48.61947800;9.05303100;2024-03-07T01:42:47;96453.13;;;2.37;100.00
7824;BME280;3957;48.61947800;9.05303100;2024-03-07T01:43:49;96452.97;;;2.38;100.00
7824;BME280;3957;48.61947800;9.05303100;2024-03-07T01:44:51;96450.50;;;2.37;100.00
7824;BME280;3957;48.61947800;9.05303100;2024-03-07T01:45:53;96447.28;;;2.43;100.00
7824;BME280;3957;48.61947800;9.05303100;2024-03-07T01:46:55;96444.75;;;2.42;100.00
7824;BME280;3957;48.61947800;9.05303100;2024-03-07T01:47:57;96447.28;;;2.33;100.00
7824;BME280;3957;48.61947800;9.05303100;2024-03-07T01:48:58;96446.75;;;2.30;100.00
7824;BME280;3957;48.61947800;9.05303100;2024-03-07T01:50:00;96450.66;;;2.26;100.00
7824;BME280;3957;48.61947800;9.05303100;2024-03-07T01:51:02;96443.19;;;2.21;100.00
7824;BME280;3957;48.61947800;9.05303100;2024-03-07T01:52:08;96443.44;;;2.18;100.00
7824;BME280;3957;48.61947800;9.05303100;2024-03-07T01:53:11;96441.09;;;2.15;100.00
7824;BME280;3957;48.61947800;9.05303100;2024-03-07T01:54:13;96445.00;;;2.11;100.00
7824;BME280;3957;48.61947800;9.05303100;2024-03-07T01:55:15;96436.25;;;2.10;100.00
7824;BME280;3957;48.61947800;9.05303100;2024-03-07T01:56:18;96444.44;;;2.07;100.00
7824;BME280;3957;48.61947800;9.05303100;2024-03-07T01:57:19;96445.03;;;2.01;100.00
7824;BME280;3957;48.61947800;9.05303100;2024-03-07T01:58:22;96443.78;;;1.95;100.00
7824;BME280;3957;48.61947800;9.05303100;2024-03-07T01:59:24;96439.03;;;1.89;100.00
7824;BME280;3957;48.61947800;9.05303100;2024-03-07T02:00:26;96437.66;;;1.85;100.00
7824;BME280;3957;48.61947800;9.05303100;2024-03-07T02:01:27;96441.56;;;1.81;100.00
7824;BME280;3957;48.61947800;9.05303100;2024-03-07T02:02:29;96442.56;;;1.80;100.00
7824;BME280;3957;48.61947800;9.05303100;2024-03-07T02:03:31;96439.91;;;1.80;100.00
7824;BME280;3957;48.61947800;9.05303100;2024-03-07T02:04:32;96437.69;;;1.75;100.00
7824;BME280;3957;48.61947800;9.05303100;2024-03-07T02:05:34;96438.25;;;1.69;100.00
7824;BME280;3957;48.61947800;9.05303100;2024-03-07T02:06:35;96433.25;;;1.66;100.00
7824;BME280;3957;48.61947800;9.05303100;2024-03-07T02:07:37;96429.22;;;1.62;100.00
7824;BME280;3957;48.61947800;9.05303100;2024-03-07T02:08:41;96432.28;;;1.57;100.00
7824;BME280;3957;48.61947800;9.05303100;2024-03-07T02:09:42;96436.16;;;1.53;100.00
7824;BME280;3957;48.61947800;9.05303100;2024-03-07T02:10:44;96436.44;;;1.50;100.00
7824;BME280;3957;48.61947800;9.05303100;2024-03-07T02:11:49;96435.88;;;1.46;100.00
7824;BME280;3957;48.61947800;9.05303100;2024-03-07T02:12:51;96431.84;;;1.42;100.00
7824;BME280;3957;48.61947800;9.05303100;2024-03-07T02:13:52;96436.44;;;1.40;100.00
7824;BME280;3957;48.61947800;9.05303100;2024-03-07T02:14:54;96434.34;;;1.34;100.00
7824;BME280;3957;48.61947800;9.05303100;2024-03-07T02:15:55;96432.84;;;1.31;100.00
7824;BME280;3957;48.61947800;9.05303100;2024-03-07T02:16:57;96431.59;;;1.26;100.00
7824;BME280;3957;48.61947800;9.05303100;2024-03-07T02:17:59;96436.97;;;1.24;100.00
7824;BME280;3957;48.61947800;9.05303100;2024-03-07T02:19:01;96434.47;;;1.23;100.00
7824;BME280;3957;48.61947800;9.05303100;2024-03-07T02:20:03;96428.38;;;1.22;100.00
7824;BME280;3957;48.61947800;9.05303100;2024-03-07T02:21:07;96428.09;;;1.15;100.00
7824;BME280;3957;48.61947800;9.05303100;2024-03-07T02:22:08;96431.00;;;1.12;100.00
7824;BME280;3957;48.61947800;9.05303100;2024-03-07T02:23:10;96430.56;;;1.07;100.00
7824;BME280;3957;48.61947800;9.05303100;2024-03-07T02:24:12;96429.19;;;1.03;100.00
7824;BME280;3957;48.61947800;9.05303100;2024-03-07T02:25:13;96430.56;;;0.97;100.00
7824;BME280;3957;48.61947800;9.05303100;2024-03-07T02:26:15;96421.13;;;0.95;100.00
7824;BME280;3957;48.61947800;9.05303100;2024-03-07T02:27:16;96428.34;;;0.93;100.00
7824;BME280;3957;48.61947800;9.05303100;2024-03-07T02:28:18;96420.56;;;0.91;100.00
7824;BME280;3957;48.61947800;9.05303100;2024-03-07T02:29:20;96419.19;;;0.87;100.00
7824;BME280;3957;48.61947800;9.05303100;2024-03-07T02:30:21;96418.31;;;0.87;100.00
7824;BME280;3957;48.61947800;9.05303100;2024-03-07T02:31:23;96426.09;;;0.88;100.00
7824;BME280;3957;48.61947800;9.05303100;2024-03-07T02:32:36;96423.59;;;0.87;100.00
7824;BME280;3957;48.61947800;9.05303100;2024-03-07T02:33:38;96422.06;;;0.84;100.00
7824;BME280;3957;48.61947800;9.05303100;2024-03-07T02:34:41;96415.97;;;0.83;100.00
7824;BME280;3957;48.61947800;9.05303100;2024-03-07T02:35:44;96420.53;;;0.81;100.00
7824;BME280;3957;48.61947800;9.05303100;2024-03-07T02:36:45;96417.19;;;0.79;100.00
7824;BME280;3957;48.61947800;9.05303100;2024-03-07T02:37:47;96420.94;;;0.77;100.00
7824;BME280;3957;48.61947800;9.05303100;2024-03-07T02:38:49;96414.84;;;0.76;100.00
7824;BME280;3957;48.61947800;9.05303100;2024-03-07T02:39:51;96420.13;;;0.76;100.00
7824;BME280;3957;48.61947800;9.05303100;2024-03-07T02:40:52;96421.06;;;0.75;100.00
7824;BME280;3957;48.61947800;9.05303100;2024-03-07T02:41:54;96422.59;;;0.78;100.00
7824;BME280;3957;48.61947800;9.05303100;2024-03-07T02:42:55;96409.56;;;0.76;100.00
7824;BME280;3957;48.61947800;9.05303100;2024-03-07T02:43:57;96419.25;;;0.76;100.00
7824;BME280;3957;48.61947800;9.05303100;2024-03-07T02:44:58;96417.63;;;0.75;100.00
7824;BME280;3957;48.61947800;9.05303100;2024-03-07T02:46:01;96420.94;;;0.77;100.00
7824;BME280;3957;48.61947800;9.05303100;2024-03-07T02:47:02;96419.25;;;0.76;100.00
7824;BME280;3957;48.61947800;9.05303100;2024-03-07T02:48:05;96413.16;;;0.75;100.00
7824;BME280;3957;48.61947800;9.05303100;2024-03-07T02:49:11;96416.75;;;0.74;100.00
7824;BME280;3957;48.61947800;9.05303100;2024-03-07T02:50:12;96409.72;;;0.75;100.00
7824;BME280;3957;48.61947800;9.05303100;2024-03-07T02:51:14;96402.78;;;0.74;100.00
7824;BME280;3957;48.61947800;9.05303100;2024-03-07T02:52:16;96408.88;;;0.74;100.00
7824;BME280;3957;48.61947800;9.05303100;2024-03-07T02:53:17;96403.06;;;0.71;100.00
7824;BME280;3957;48.61947800;9.05303100;2024-03-07T02:54:19;96398.75;;;0.70;100.00
7824;BME280;3957;48.61947800;9.05303100;2024-03-07T02:55:20;96404.16;;;0.68;100.00
7824;BME280;3957;48.61947800;9.05303100;2024-03-07T02:56:22;96405.25;;;0.65;100.00
7824;BME280;3957;48.61947800;9.05303100;2024-03-07T02:57:23;96405.53;;;0.62;100.00
7824;BME280;3957;48.61947800;9.05303100;2024-03-07T02:58:25;96404.66;;;0.62;100.00
7824;BME280;3957;48.61947800;9.05303100;2024-03-07T02:59:27;96406.88;;;0.57;100.00
7824;BME280;3957;48.61947800;9.05303100;2024-03-07T03:00:28;96406.31;;;0.53;100.00
7824;BME280;3957;48.61947800;9.05303100;2024-03-07T03:01:33;96405.50;;;0.53;100.00
7824;BME280;3957;48.61947800;9.05303100;2024-03-07T03:02:35;96408.63;;;0.46;100.00
7824;BME280;3957;48.61947800;9.05303100;2024-03-07T03:03:36;96404.19;;;0.47;100.00
7824;BME280;3957;48.61947800;9.05303100;2024-03-07T03:04:38;96397.69;;;0.51;100.00
7824;BME280;3957;48.61947800;9.05303100;2024-03-07T03:05:40;96407.53;;;0.49;100.00
7824;BME280;3957;48.61947800;9.05303100;2024-03-07T03:06:41;96410.31;;;0.47;100.00
7824;BME280;3957;48.61947800;9.05303100;2024-03-07T03:07:43;96407.81;;;0.46;100.00
7824;BME280;3957;48.61947800;9.05303100;2024-03-07T03:08:54;96400.16;;;0.43;100.00
7824;BME280;3957;48.61947800;9.05303100;2024-03-07T03:09:55;96402.09;;;0.41;100.00
7824;BME280;3957;48.61947800;9.05303100;2024-03-07T03:10:57;96401.53;;;0.37;100.00
7824;BME280;3957;48.61947800;9.05303100;2024-03-07T03:11:59;96402.63;;;0.34;100.00
7824;BME280;3957;48.61947800;9.05303100;2024-03-07T03:13:02;96401.81;;;0.34;100.00
7824;BME280;3957;48.61947800;9.05303100;2024-03-07T03:14:03;96400.25;;;0.31;100.00
7824;BME280;3957;48.61947800;9.05303100;2024-03-07T03:15:06;96402.06;;;0.31;100.00
7824;BME280;3957;48.61947800;9.05303100;2024-03-07T03:16:08;96399.44;;;0.31;100.00
7824;BME280;3957;48.61947800;9.05303100;2024-03-07T03:17:11;96396.09;;;0.29;100.00
7824;BME280;3957;48.61947800;9.05303100;2024-03-07T03:18:12;96399.94;;;0.25;100.00
7824;BME280;3957;48.61947800;9.05303100;2024-03-07T03:19:14;96397.47;;;0.23;100.00
7824;BME280;3957;48.61947800;9.05303100;2024-03-07T03:20:16;96394.28;;;0.20;100.00
7824;BME280;3957;48.61947800;9.05303100;2024-03-07T03:21:28;96401.44;;;0.17;100.00
7824;BME280;3957;48.61947800;9.05303100;2024-03-07T03:22:29;96401.72;;;0.14;100.00
7824;BME280;3957;48.61947800;9.05303100;2024-03-07T03:23:31;96389.66;;;0.12;100.00
7824;BME280;3957;48.61947800;9.05303100;2024-03-07T03:24:33;96395.06;;;0.10;100.00
7824;BME280;3957;48.61947800;9.05303100;2024-03-07T03:25:34;96398.63;;;0.09;100.00
7824;BME280;3957;48.61947800;9.05303100;2024-03-07T03:26:36;96399.50;;;0.10;100.00
7824;BME280;3957;48.61947800;9.05303100;2024-03-07T03:27:37;96398.78;;;0.08;100.00
7824;BME280;3957;48.61947800;9.05303100;2024-03-07T03:28:40;96406.66;;;0.08;100.00
7824;BME280;3957;48.61947800;9.05303100;2024-03-07T03:29:42;96400.72;;;0.06;100.00
7824;BME280;3957;48.61947800;9.05303100;2024-03-07T03:30:44;96398.91;;;0.06;100.00
7824;BME280;3957;48.61947800;9.05303100;2024-03-07T03:31:46;96392.94;;;0.04;100.00
7824;BME280;3957;48.61947800;9.05303100;2024-03-07T03:32:47;96398.47;;;0.01;100.00
7824;BME280;3957;48.61947800;9.05303100;2024-03-07T03:33:49;96393.19;;;0.01;100.00
7824;BME280;3957;48.61947800;9.05303100;2024-03-07T03:34:52;96399.44;;;0.00;100.00
7824;BME280;3957;48.61947800;9.05303100;2024-03-07T03:35:54;96392.66;;;-0.03;100.00
7824;BME280;3957;48.61947800;9.05303100;2024-03-07T03:36:56;96395.41;;;-0.04;100.00
7824;BME280;3957;48.61947800;9.05303100;2024-03-07T03:37:58;96390.16;;;-0.04;100.00
7824;BME280;3957;48.61947800;9.05303100;2024-03-07T03:39:00;96396.09;;;-0.02;100.00
7824;BME280;3957;48.61947800;9.05303100;2024-03-07T03:40:02;96388.34;;;-0.04;100.00
7824;BME280;3957;48.61947800;9.05303100;2024-03-07T03:41:06;96381.66;;;-0.08;100.00
7824;BME280;3957;48.61947800;9.05303100;2024-03-07T03:42:07;96390.66;;;-0.10;100.00
7824;BME280;3957;48.61947800;9.05303100;2024-03-07T03:43:09;96388.84;;;-0.10;100.00
7824;BME280;3957;48.61947800;9.05303100;2024-03-07T03:44:11;96390.78;;;-0.12;100.00
7824;BME280;3957;48.61947800;9.05303100;2024-03-07T03:45:13;96389.38;;;-0.16;100.00
7824;BME280;3957;48.61947800;9.05303100;2024-03-07T03:46:16;96383.53;;;-0.20;100.00
7824;BME280;3957;48.61947800;9.05303100;2024-03-07T03:47:18;96385.47;;;-0.22;100.00
7824;BME280;3957;48.61947800;9.05303100;2024-03-07T03:48:21;96391.56;;;-0.21;100.00
7824;BME280;3957;48.61947800;9.05303100;2024-03-07T03:49:22;96390.88;;;-0.23;100.00
7824;BME280;3957;48.61947800;9.05303100;2024-03-07T03:50:24;96383.94;;;-0.24;100.00
7824;BME280;3957;48.61947800;9.05303100;2024-03-07T03:51:26;96390.28;;;-0.27;100.00
7824;BME280;3957;48.61947800;9.05303100;2024-03-07T03:52:29;96386.94;;;-0.29;100.00
7824;BME280;3957;48.61947800;9.05303100;2024-03-07T03:53:32;96380.72;;;-0.28;100.00
7824;BME280;3957;48.61947800;9.05303100;2024-03-07T03:54:33;96390.13;;;-0.25;100.00
7824;BME280;3957;48.61947800;9.05303100;2024-03-07T03:55:35;96388.38;;;-0.25;100.00
7824;BME280;3957;48.61947800;9.05303100;2024-03-07T03:56:38;96380.72;;;-0.28;100.00
7824;BME280;3957;48.61947800;9.05303100;2024-03-07T03:57:42;96385.97;;;-0.28;100.00
7824;BME280;3957;48.61947800;9.05303100;2024-03-07T03:58:44;96380.03;;;-0.30;100.00
7824;BME280;3957;48.61947800;9.05303100;2024-03-07T03:59:46;96380.97;;;-0.31;100.00
7824;BME280;3957;48.61947800;9.05303100;2024-03-07T04:00:47;96380.41;;;-0.35;100.00
7824;BME280;3957;48.61947800;9.05303100;2024-03-07T04:01:49;96383.16;;;-0.36;100.00
7824;BME280;3957;48.61947800;9.05303100;2024-03-07T04:02:51;96388.53;;;-0.38;100.00
7824;BME280;3957;48.61947800;9.05303100;2024-03-07T04:03:53;96385.22;;;-0.40;100.00
7824;BME280;3957;48.61947800;9.05303100;2024-03-07T04:04:54;96388.41;;;-0.36;100.00
7824;BME280;3957;48.61947800;9.05303100;2024-03-07T04:05:56;96385.78;;;-0.36;100.00
7824;BME280;3957;48.61947800;9.05303100;2024-03-07T04:06:58;96382.59;;;-0.40;100.00
7824;BME280;3957;48.61947800;9.05303100;2024-03-07T04:08:00;96383.53;;;-0.41;100.00
7824;BME280;3957;48.61947800;9.05303100;2024-03-07T04:09:02;96381.03;;;-0.42;100.00
7824;BME280;3957;48.61947800;9.05303100;2024-03-07T04:10:04;96379.50;;;-0.45;100.00
7824;BME280;3957;48.61947800;9.05303100;2024-03-07T04:11:08;96384.06;;;-0.47;100.00
7824;BME280;3957;48.61947800;9.05303100;2024-03-07T04:12:12;96379.75;;;-0.48;100.00
7824;BME280;3957;48.61947800;9.05303100;2024-03-07T04:13:14;96382.53;;;-0.49;100.00
7824;BME280;3957;48.61947800;9.05303100;2024-03-07T04:14:15;96376.28;;;-0.48;100.00
7824;BME280;3957;48.61947800;9.05303100;2024-03-07T04:15:17;96376.56;;;-0.52;100.00
7824;BME280;3957;48.61947800;9.05303100;2024-03-07T04:16:20;96379.19;;;-0.52;100.00
7824;BME280;3957;48.61947800;9.05303100;2024-03-07T04:17:22;96375.84;;;-0.54;100.00
7824;BME280;3957;48.61947800;9.05303100;2024-03-07T04:18:24;96375.47;;;-0.49;100.00
7824;BME280;3957;48.61947800;9.05303100;2024-03-07T04:19:26;96377.50;;;-0.53;100.00
7824;BME280;3957;48.61947800;9.05303100;2024-03-07T04:20:27;96377.75;;;-0.56;100.00
7824;BME280;3957;48.61947800;9.05303100;2024-03-07T04:21:29;96379.69;;;-0.58;100.00
7824;BME280;3957;48.61947800;9.05303100;2024-03-07T04:22:32;96377.31;;;-0.61;100.00
7824;BME280;3957;48.61947800;9.05303100;2024-03-07T04:23:34;96373.97;;;-0.63;100.00
7824;BME280;3957;48.61947800;9.05303100;2024-03-07T04:24:36;96374.13;;;-0.64;100.00
7824;BME280;3957;48.61947800;9.05303100;2024-03-07T04:25:37;96375.78;;;-0.63;100.00
7824;BME280;3957;48.61947800;9.05303100;2024-03-07T04:26:39;96375.06;;;-0.65;100.00
7824;BME280;3957;48.61947800;9.05303100;2024-03-07T04:27:43;96375.19;;;-0.67;100.00
7824;BME280;3957;48.61947800;9.05303100;2024-03-07T04:28:44;96372.56;;;-0.67;100.00
7824;BME280;3957;48.61947800;9.05303100;2024-03-07T04:29:46;96370.53;;;-0.63;100.00
7824;BME280;3957;48.61947800;9.05303100;2024-03-07T04:30:49;96374.94;;;-0.64;100.00
7824;BME280;3957;48.61947800;9.05303100;2024-03-07T04:31:50;96373.25;;;-0.65;100.00
7824;BME280;3957;48.61947800;9.05303100;2024-03-07T04:32:52;96379.25;;;-0.63;100.00
7824;BME280;3957;48.61947800;9.05303100;2024-03-07T04:33:54;96370.41;;;-0.62;100.00
7824;BME280;3957;48.61947800;9.05303100;2024-03-07T04:34:55;96374.44;;;-0.58;100.00
7824;BME280;3957;48.61947800;9.05303100;2024-03-07T04:35:58;96367.78;;;-0.62;100.00
7824;BME280;3957;48.61947800;9.05303100;2024-03-07T04:37:03;96376.63;;;-0.63;100.00
7824;BME280;3957;48.61947800;9.05303100;2024-03-07T04:38:08;96376.03;;;-0.66;100.00
7824;BME280;3957;48.61947800;9.05303100;2024-03-07T04:39:12;96373.38;;;-0.66;100.00
7824;BME280;3957;48.61947800;9.05303100;2024-03-07T04:40:26;96378.09;;;-0.70;100.00
7824;BME280;3957;48.61947800;9.05303100;2024-03-07T04:41:27;96374.38;;;-0.67;100.00
7824;BME280;3957;48.61947800;9.05303100;2024-03-07T04:42:30;96370.75;;;-0.66;100.00
7824;BME280;3957;48.61947800;9.05303100;2024-03-07T04:43:31;96373.53;;;-0.68;100.00
7824;BME280;3957;48.61947800;9.05303100;2024-03-07T04:44:35;96372.69;;;-0.69;100.00
7824;BME280;3957;48.61947800;9.05303100;2024-03-07T04:45:37;96377.22;;;-0.71;100.00
7824;BME280;3957;48.61947800;9.05303100;2024-03-07T04:46:39;96373.25;;;-0.65;100.00
7824;BME280;3957;48.61947800;9.05303100;2024-03-07T04:47:44;96370.75;;;-0.66;100.00
7824;BME280;3957;48.61947800;9.05303100;2024-03-07T04:48:46;96371.63;;;-0.66;100.00
7824;BME280;3957;48.61947800;9.05303100;2024-03-07T04:49:48;96371.97;;;-0.71;100.00
7824;BME280;3957;48.61947800;9.05303100;2024-03-07T04:50:50;96375.59;;;-0.72;100.00
7824;BME280;3957;48.61947800;9.05303100;2024-03-07T04:51:52;96375.00;;;-0.75;100.00
7824;BME280;3957;48.61947800;9.05303100;2024-03-07T04:52:54;96375.94;;;-0.76;100.00
7824;BME280;3957;48.61947800;9.05303100;2024-03-07T04:53:55;96372.63;;;-0.78;100.00
7824;BME280;3957;48.61947800;9.05303100;2024-03-07T04:54:57;96364.03;;;-0.80;100.00
7824;BME280;3957;48.61947800;9.05303100;2024-03-07T04:55:58;96369.41;;;-0.82;100.00